Sylvan Grove, Kansas
Current Conditions -  °F | °C
As of 5:53 PM on Monday 24 Nov 2014 (Local Time) from KRSL Reporting Station
Clear Clear  
Wind Chill: 31°   Ceiling: Unl
Heat Index: 37°   Visibility: 10mi
Dew Point: 17°   Wind: 8mph
Humidity: 44%   Direction: 350°N
Pressure: 30"   Gusts: NA
Location:  39.01°N, 98.39°W
Report Text: KRSL 242353Z AUTO 35007KT 10SM CLR 03/M08 A3000 RMK AO2 SLP174 T00281083 10100 20022 51027
Loading
Personal Weather Stations






























Interactive Weather Map New forecast layout! Learn more

10-Day Weather Forecast

Advertisements
Track Severe Weather on mobile